Ana Sayfa
METAR-TAF:

METAR-TAF

Havaalanları :

Kuveyt, Kuveyt

Enlem: 29-13N, Boylam: 047-59E, yükseklik: 55 m

Güncel hava durumu gözlemi

Rapor saat 06:00 UTC de 1 saat ve 7 dakika önce yapıldı.
Rüzgar kuzeydoğudan 3 kt
Sıcaklık 34°C
Nem 39%
Basınç 1006 hPa
Görüş mesafesi: 8000 m
Açık gökyüzü

METAR: OKBK 210600Z 05003KT 8000 SKC 34/18 Q1006 NOSIG

Saat: 10:07 (07:07 UTC)

Tahmin

Rapor saat 04:45 UTC de 2 saat ve 22 dakika önce yapıldı.
Ayın 21'si saat 06 UTC'den ayın 22'si saat 12 UTC'ye kadar geçerli Tahmin
Rüzgar kuzey/kuzeybatıdan 8 kt
Görüş mesafesi: 7000 m
Açık gökyüzü
Geçici
ayın 21'si saat 06 UTC'den ayın 21'si saat 12 UTC'ye kadar
Rüzgar değişken yönden 3 kt
Görüş mesafesi: 3000 m
Toz Pusu
Dönüşüyor
ayın 21'si saat 12 UTC'den ayın 21'si saat 14 UTC'ye kadar
Rüzgar güney/güneydoğudan 10 kt

TAF: OKBK 210445Z 2106/2212 34008KT 7000 SKC TEMPO 2106/2112 VRB03KT 3000 HZ BECMG 2112/2114 16010KT

4.000'den fazla havaalanı için hava durumu gözlemleri ve tahminleri (METAR ve TAF raporları).

Kullanılabilir istasyonlar harita üzerinde sarı ve kırmızı noktalarla gösterilir.

İstasyonun adını görmek için fareyi noktanın üzerinde gezdirin.

Sonrasında hava gözlem ve tahminlerini görmek için tıklayın.

Haritayı değiştirmek için: yaklaştırmak için siyah artı işaretli yeşil düğmeye ve uzaklaştırmak için de eksi işaretli düğmeye hızla tıklayın; bitişik haritalar için yeşil okları kullanın.


METAR-TAF: